sensor_id;sensor_type;location;lat;lon;timestamp;P1;durP1;ratioP1;P2;durP2;ratioP2
12248;SDS011;6187;50.778;6.142;2023-12-20T00:00:40;5.90;;;4.37;;
12248;SDS011;6187;50.778;6.142;2023-12-20T00:03:08;7.53;;;5.00;;
12248;SDS011;6187;50.778;6.142;2023-12-20T00:05:37;7.50;;;6.03;;
12248;SDS011;6187;50.778;6.142;2023-12-20T00:08:07;7.70;;;5.27;;
12248;SDS011;6187;50.778;6.142;2023-12-20T00:10:36;5.83;;;4.87;;
12248;SDS011;6187;50.778;6.142;2023-12-20T00:13:06;6.27;;;4.60;;
12248;SDS011;6187;50.778;6.142;2023-12-20T00:15:35;6.47;;;3.87;;
12248;SDS011;6187;50.778;6.142;2023-12-20T00:18:04;7.13;;;3.80;;
12248;SDS011;6187;50.778;6.142;2023-12-20T00:20:32;4.53;;;3.70;;
12248;SDS011;6187;50.778;6.142;2023-12-20T00:23:01;5.97;;;3.47;;
12248;SDS011;6187;50.778;6.142;2023-12-20T00:25:30;4.60;;;3.40;;
12248;SDS011;6187;50.778;6.142;2023-12-20T00:27:58;3.90;;;2.80;;
12248;SDS011;6187;50.778;6.142;2023-12-20T00:30:28;5.47;;;2.93;;
12248;SDS011;6187;50.778;6.142;2023-12-20T00:32:57;3.40;;;2.60;;
12248;SDS011;6187;50.778;6.142;2023-12-20T00:35:25;5.20;;;3.10;;
12248;SDS011;6187;50.778;6.142;2023-12-20T00:37:54;4.93;;;3.20;;
12248;SDS011;6187;50.778;6.142;2023-12-20T00:40:22;4.27;;;2.97;;
12248;SDS011;6187;50.778;6.142;2023-12-20T00:42:51;3.80;;;3.20;;
12248;SDS011;6187;50.778;6.142;2023-12-20T00:45:19;6.40;;;3.80;;
12248;SDS011;6187;50.778;6.142;2023-12-20T00:47:49;8.53;;;4.60;;
12248;SDS011;6187;50.778;6.142;2023-12-20T00:50:18;8.27;;;5.07;;
12248;SDS011;6187;50.778;6.142;2023-12-20T00:52:48;7.97;;;5.27;;
12248;SDS011;6187;50.778;6.142;2023-12-20T00:55:16;6.53;;;4.43;;
12248;SDS011;6187;50.778;6.142;2023-12-20T00:57:45;6.10;;;4.20;;
12248;SDS011;6187;50.778;6.142;2023-12-20T01:00:15;5.93;;;3.50;;
12248;SDS011;6187;50.778;6.142;2023-12-20T01:02:43;4.90;;;3.37;;
12248;SDS011;6187;50.778;6.142;2023-12-20T01:05:14;5.37;;;2.77;;
12248;SDS011;6187;50.778;6.142;2023-12-20T01:07:44;3.40;;;2.70;;
12248;SDS011;6187;50.778;6.142;2023-12-20T01:10:13;4.07;;;2.53;;
12248;SDS011;6187;50.778;6.142;2023-12-20T01:12:42;5.57;;;2.33;;
12248;SDS011;6187;50.778;6.142;2023-12-20T01:15:11;3.70;;;2.33;;
12248;SDS011;6187;50.778;6.142;2023-12-20T01:17:40;3.97;;;2.43;;
12248;SDS011;6187;50.778;6.142;2023-12-20T01:20:09;8.87;;;2.03;;
12248;SDS011;6187;50.778;6.142;2023-12-20T01:22:39;2.60;;;1.87;;
12248;SDS011;6187;50.778;6.142;2023-12-20T01:25:09;7.53;;;2.30;;
12248;SDS011;6187;50.778;6.142;2023-12-20T01:27:38;3.87;;;1.40;;
12248;SDS011;6187;50.778;6.142;2023-12-20T01:30:07;6.87;;;2.27;;
12248;SDS011;6187;50.778;6.142;2023-12-20T01:32:35;3.03;;;1.30;;
12248;SDS011;6187;50.778;6.142;2023-12-20T01:35:04;4.97;;;1.70;;
12248;SDS011;6187;50.778;6.142;2023-12-20T01:37:33;5.70;;;1.40;;
12248;SDS011;6187;50.778;6.142;2023-12-20T01:40:03;2.90;;;1.93;;
12248;SDS011;6187;50.778;6.142;2023-12-20T01:42:32;4.13;;;1.60;;
12248;SDS011;6187;50.778;6.142;2023-12-20T01:45:01;3.80;;;1.87;;
12248;SDS011;6187;50.778;6.142;2023-12-20T01:47:30;4.97;;;1.87;;
12248;SDS011;6187;50.778;6.142;2023-12-20T01:49:58;7.00;;;2.23;;
12248;SDS011;6187;50.778;6.142;2023-12-20T01:52:30;3.27;;;1.97;;
12248;SDS011;6187;50.778;6.142;2023-12-20T01:55:00;4.43;;;1.90;;
12248;SDS011;6187;50.778;6.142;2023-12-20T01:57:31;3.43;;;1.80;;
12248;SDS011;6187;50.778;6.142;2023-12-20T02:00:00;3.70;;;1.93;;
12248;SDS011;6187;50.778;6.142;2023-12-20T02:02:30;3.37;;;1.57;;
12248;SDS011;6187;50.778;6.142;2023-12-20T02:04:59;4.43;;;1.90;;
12248;SDS011;6187;50.778;6.142;2023-12-20T02:07:29;4.07;;;1.67;;
12248;SDS011;6187;50.778;6.142;2023-12-20T02:09:57;4.07;;;1.50;;
12248;SDS011;6187;50.778;6.142;2023-12-20T02:12:26;3.23;;;2.00;;
12248;SDS011;6187;50.778;6.142;2023-12-20T02:14:56;5.87;;;1.67;;
12248;SDS011;6187;50.778;6.142;2023-12-20T02:17:24;3.23;;;1.60;;
12248;SDS011;6187;50.778;6.142;2023-12-20T02:19:53;2.03;;;1.50;;
12248;SDS011;6187;50.778;6.142;2023-12-20T02:22:23;2.73;;;1.77;;
12248;SDS011;6187;50.778;6.142;2023-12-20T02:24:52;3.90;;;1.30;;
12248;SDS011;6187;50.778;6.142;2023-12-20T02:27:21;2.30;;;1.73;;
12248;SDS011;6187;50.778;6.142;2023-12-20T02:29:51;2.33;;;1.40;;
12248;SDS011;6187;50.778;6.142;2023-12-20T02:32:19;3.20;;;1.67;;
12248;SDS011;6187;50.778;6.142;2023-12-20T02:34:49;2.10;;;1.67;;
12248;SDS011;6187;50.778;6.142;2023-12-20T02:37:18;6.07;;;2.67;;
12248;SDS011;6187;50.778;6.142;2023-12-20T02:39:47;4.23;;;1.83;;
12248;SDS011;6187;50.778;6.142;2023-12-20T02:42:16;6.20;;;2.87;;
12248;SDS011;6187;50.778;6.142;2023-12-20T02:44:45;3.27;;;2.13;;
12248;SDS011;6187;50.778;6.142;2023-12-20T02:47:13;4.97;;;2.57;;
12248;SDS011;6187;50.778;6.142;2023-12-20T02:49:42;3.10;;;2.33;;
12248;SDS011;6187;50.778;6.142;2023-12-20T02:52:11;8.10;;;2.50;;
12248;SDS011;6187;50.778;6.142;2023-12-20T02:54:39;3.70;;;2.67;;
12248;SDS011;6187;50.778;6.142;2023-12-20T02:57:09;4.47;;;2.73;;
12248;SDS011;6187;50.778;6.142;2023-12-20T02:59:38;3.93;;;2.50;;
12248;SDS011;6187;50.778;6.142;2023-12-20T03:02:06;6.47;;;2.80;;
12248;SDS011;6187;50.778;6.142;2023-12-20T03:04:35;7.07;;;2.57;;
12248;SDS011;6187;50.778;6.142;2023-12-20T03:07:04;4.37;;;2.23;;
12248;SDS011;6187;50.778;6.142;2023-12-20T03:09:32;5.97;;;2.50;;
12248;SDS011;6187;50.778;6.142;2023-12-20T03:12:22;5.10;;;2.20;;
12248;SDS011;6187;50.778;6.142;2023-12-20T03:14:51;5.60;;;2.17;;
12248;SDS011;6187;50.778;6.142;2023-12-20T03:17:19;7.10;;;2.77;;
12248;SDS011;6187;50.778;6.142;2023-12-20T03:19:48;5.57;;;2.57;;
12248;SDS011;6187;50.778;6.142;2023-12-20T03:22:16;4.03;;;3.03;;
12248;SDS011;6187;50.778;6.142;2023-12-20T03:24:45;6.53;;;2.97;;
12248;SDS011;6187;50.778;6.142;2023-12-20T03:27:13;3.77;;;2.93;;
12248;SDS011;6187;50.778;6.142;2023-12-20T03:29:43;5.30;;;2.70;;
12248;SDS011;6187;50.778;6.142;2023-12-20T03:32:12;5.37;;;2.30;;
12248;SDS011;6187;50.778;6.142;2023-12-20T03:34:40;4.67;;;2.53;;
12248;SDS011;6187;50.778;6.142;2023-12-20T03:37:09;4.90;;;2.67;;
12248;SDS011;6187;50.778;6.142;2023-12-20T03:39:38;8.17;;;3.30;;
12248;SDS011;6187;50.778;6.142;2023-12-20T03:42:06;5.70;;;2.63;;
12248;SDS011;6187;50.778;6.142;2023-12-20T03:44:37;7.03;;;3.30;;
12248;SDS011;6187;50.778;6.142;2023-12-20T03:47:08;4.97;;;3.20;;
12248;SDS011;6187;50.778;6.142;2023-12-20T03:49:36;6.00;;;3.40;;
12248;SDS011;6187;50.778;6.142;2023-12-20T03:52:05;3.97;;;2.60;;
12248;SDS011;6187;50.778;6.142;2023-12-20T03:54:34;5.23;;;3.10;;
12248;SDS011;6187;50.778;6.142;2023-12-20T03:57:03;6.87;;;4.13;;
12248;SDS011;6187;50.778;6.142;2023-12-20T03:59:34;3.53;;;3.00;;
12248;SDS011;6187;50.778;6.142;2023-12-20T04:02:03;4.33;;;3.33;;
12248;SDS011;6187;50.778;6.142;2023-12-20T04:04:33;6.53;;;3.20;;
12248;SDS011;6187;50.778;6.142;2023-12-20T04:07:02;9.27;;;3.23;;
12248;SDS011;6187;50.778;6.142;2023-12-20T04:09:31;8.97;;;3.10;;
12248;SDS011;6187;50.778;6.142;2023-12-20T04:11:59;5.97;;;2.63;;
12248;SDS011;6187;50.778;6.142;2023-12-20T04:14:28;10.67;;;3.40;;
12248;SDS011;6187;50.778;6.142;2023-12-20T04:16:56;6.53;;;3.30;;
12248;SDS011;6187;50.778;6.142;2023-12-20T04:19:25;4.80;;;2.80;;
12248;SDS011;6187;50.778;6.142;2023-12-20T04:21:55;3.50;;;2.87;;
12248;SDS011;6187;50.778;6.142;2023-12-20T04:24:24;4.07;;;2.60;;
12248;SDS011;6187;50.778;6.142;2023-12-20T04:26:52;6.73;;;2.60;;
12248;SDS011;6187;50.778;6.142;2023-12-20T04:29:21;5.07;;;2.77;;
12248;SDS011;6187;50.778;6.142;2023-12-20T04:31:50;4.60;;;2.60;;
12248;SDS011;6187;50.778;6.142;2023-12-20T04:34:18;5.73;;;2.53;;
12248;SDS011;6187;50.778;6.142;2023-12-20T04:36:47;3.17;;;2.23;;
12248;SDS011;6187;50.778;6.142;2023-12-20T04:39:17;6.03;;;2.40;;
12248;SDS011;6187;50.778;6.142;2023-12-20T04:41:47;6.37;;;2.40;;
12248;SDS011;6187;50.778;6.142;2023-12-20T04:44:16;5.53;;;2.20;;
12248;SDS011;6187;50.778;6.142;2023-12-20T04:46:45;4.23;;;1.93;;
12248;SDS011;6187;50.778;6.142;2023-12-20T04:49:13;4.97;;;2.10;;
12248;SDS011;6187;50.778;6.142;2023-12-20T04:51:42;4.33;;;2.00;;
12248;SDS011;6187;50.778;6.142;2023-12-20T04:54:11;6.30;;;2.80;;
12248;SDS011;6187;50.778;6.142;2023-12-20T04:56:41;7.37;;;2.40;;
12248;SDS011;6187;50.778;6.142;2023-12-20T04:59:10;6.97;;;2.47;;
12248;SDS011;6187;50.778;6.142;2023-12-20T05:01:38;8.23;;;2.53;;
12248;SDS011;6187;50.778;6.142;2023-12-20T05:04:07;3.30;;;2.00;;
12248;SDS011;6187;50.778;6.142;2023-12-20T05:06:36;4.70;;;2.30;;
12248;SDS011;6187;50.778;6.142;2023-12-20T05:09:04;9.97;;;2.50;;
12248;SDS011;6187;50.778;6.142;2023-12-20T05:11:33;4.17;;;2.23;;
12248;SDS011;6187;50.778;6.142;2023-12-20T05:14:03;8.47;;;3.03;;
12248;SDS011;6187;50.778;6.142;2023-12-20T05:16:31;7.87;;;2.03;;
12248;SDS011;6187;50.778;6.142;2023-12-20T05:19:00;3.97;;;2.00;;
12248;SDS011;6187;50.778;6.142;2023-12-20T05:21:33;4.93;;;2.57;;
12248;SDS011;6187;50.778;6.142;2023-12-20T05:24:02;6.63;;;2.50;;
12248;SDS011;6187;50.778;6.142;2023-12-20T05:26:31;8.17;;;2.73;;
12248;SDS011;6187;50.778;6.142;2023-12-20T05:28:59;4.37;;;2.40;;
12248;SDS011;6187;50.778;6.142;2023-12-20T05:31:29;8.47;;;2.67;;
12248;SDS011;6187;50.778;6.142;2023-12-20T05:33:58;10.13;;;2.47;;
12248;SDS011;6187;50.778;6.142;2023-12-20T05:36:27;11.40;;;3.33;;
12248;SDS011;6187;50.778;6.142;2023-12-20T05:38:55;8.13;;;2.83;;
12248;SDS011;6187;50.778;6.142;2023-12-20T05:41:24;3.17;;;2.37;;
12248;SDS011;6187;50.778;6.142;2023-12-20T05:43:52;5.10;;;3.00;;
12248;SDS011;6187;50.778;6.142;2023-12-20T05:46:21;4.03;;;2.23;;
12248;SDS011;6187;50.778;6.142;2023-12-20T05:48:51;4.13;;;2.57;;
12248;SDS011;6187;50.778;6.142;2023-12-20T05:51:20;2.87;;;2.27;;
12248;SDS011;6187;50.778;6.142;2023-12-20T05:53:48;4.80;;;2.50;;
12248;SDS011;6187;50.778;6.142;2023-12-20T05:56:17;4.93;;;2.50;;
12248;SDS011;6187;50.778;6.142;2023-12-20T05:58:45;5.03;;;2.67;;
12248;SDS011;6187;50.778;6.142;2023-12-20T06:01:14;7.20;;;2.70;;
12248;SDS011;6187;50.778;6.142;2023-12-20T06:03:43;4.13;;;3.00;;
12248;SDS011;6187;50.778;6.142;2023-12-20T06:06:14;6.10;;;2.83;;
12248;SDS011;6187;50.778;6.142;2023-12-20T06:08:43;6.47;;;2.60;;
12248;SDS011;6187;50.778;6.142;2023-12-20T06:11:11;5.33;;;2.40;;
12248;SDS011;6187;50.778;6.142;2023-12-20T06:13:40;5.43;;;3.00;;
12248;SDS011;6187;50.778;6.142;2023-12-20T06:16:09;8.00;;;3.03;;
12248;SDS011;6187;50.778;6.142;2023-12-20T06:18:38;4.57;;;2.77;;
12248;SDS011;6187;50.778;6.142;2023-12-20T06:21:06;8.77;;;2.90;;
12248;SDS011;6187;50.778;6.142;2023-12-20T06:23:40;7.37;;;2.83;;
12248;SDS011;6187;50.778;6.142;2023-12-20T06:26:09;4.93;;;3.50;;
12248;SDS011;6187;50.778;6.142;2023-12-20T06:28:37;9.40;;;2.83;;
12248;SDS011;6187;50.778;6.142;2023-12-20T06:31:08;5.63;;;2.63;;
12248;SDS011;6187;50.778;6.142;2023-12-20T06:33:36;7.13;;;3.03;;
12248;SDS011;6187;50.778;6.142;2023-12-20T06:36:07;7.13;;;2.63;;
12248;SDS011;6187;50.778;6.142;2023-12-20T06:38:36;4.43;;;2.50;;
12248;SDS011;6187;50.778;6.142;2023-12-20T06:41:07;4.03;;;2.70;;
12248;SDS011;6187;50.778;6.142;2023-12-20T06:43:36;4.50;;;2.63;;
12248;SDS011;6187;50.778;6.142;2023-12-20T06:46:15;6.37;;;2.80;;
12248;SDS011;6187;50.778;6.142;2023-12-20T06:48:44;10.03;;;2.83;;
12248;SDS011;6187;50.778;6.142;2023-12-20T06:51:14;7.73;;;2.77;;
12248;SDS011;6187;50.778;6.142;2023-12-20T06:53:42;8.23;;;2.70;;
12248;SDS011;6187;50.778;6.142;2023-12-20T06:56:13;6.13;;;2.60;;
12248;SDS011;6187;50.778;6.142;2023-12-20T06:58:45;6.23;;;2.63;;
12248;SDS011;6187;50.778;6.142;2023-12-20T07:01:14;6.23;;;3.23;;
12248;SDS011;6187;50.778;6.142;2023-12-20T07:03:43;5.93;;;3.50;;
12248;SDS011;6187;50.778;6.142;2023-12-20T07:06:11;7.03;;;2.90;;
12248;SDS011;6187;50.778;6.142;2023-12-20T07:08:42;6.63;;;3.07;;
12248;SDS011;6187;50.778;6.142;2023-12-20T07:11:12;5.93;;;3.43;;
12248;SDS011;6187;50.778;6.142;2023-12-20T07:13:41;4.53;;;2.90;;
12248;SDS011;6187;50.778;6.142;2023-12-20T07:16:09;7.33;;;3.37;;
12248;SDS011;6187;50.778;6.142;2023-12-20T07:18:38;8.10;;;3.03;;
12248;SDS011;6187;50.778;6.142;2023-12-20T07:21:07;5.53;;;3.27;;
12248;SDS011;6187;50.778;6.142;2023-12-20T07:23:35;8.27;;;3.70;;
12248;SDS011;6187;50.778;6.142;2023-12-20T07:26:04;11.13;;;3.37;;
12248;SDS011;6187;50.778;6.142;2023-12-20T07:28:34;7.43;;;2.77;;
12248;SDS011;6187;50.778;6.142;2023-12-20T07:31:02;6.40;;;3.03;;
12248;SDS011;6187;50.778;6.142;2023-12-20T07:33:31;6.03;;;3.00;;
12248;SDS011;6187;50.778;6.142;2023-12-20T07:36:06;5.93;;;2.93;;
12248;SDS011;6187;50.778;6.142;2023-12-20T07:38:35;8.17;;;3.60;;
12248;SDS011;6187;50.778;6.142;2023-12-20T07:41:04;6.93;;;3.13;;
12248;SDS011;6187;50.778;6.142;2023-12-20T07:43:34;9.60;;;4.00;;
12248;SDS011;6187;50.778;6.142;2023-12-20T07:46:05;7.60;;;3.10;;
12248;SDS011;6187;50.778;6.142;2023-12-20T07:48:35;6.73;;;3.00;;
12248;SDS011;6187;50.778;6.142;2023-12-20T07:51:03;7.03;;;2.80;;
12248;SDS011;6187;50.778;6.142;2023-12-20T07:53:34;7.33;;;3.07;;
12248;SDS011;6187;50.778;6.142;2023-12-20T07:56:02;6.27;;;3.13;;
12248;SDS011;6187;50.778;6.142;2023-12-20T07:58:42;7.20;;;3.10;;
12248;SDS011;6187;50.778;6.142;2023-12-20T08:01:19;10.30;;;4.07;;
12248;SDS011;6187;50.778;6.142;2023-12-20T08:03:49;6.27;;;3.57;;
12248;SDS011;6187;50.778;6.142;2023-12-20T08:06:18;7.13;;;3.57;;
12248;SDS011;6187;50.778;6.142;2023-12-20T08:08:47;7.93;;;3.23;;
12248;SDS011;6187;50.778;6.142;2023-12-20T08:11:27;7.20;;;2.73;;
12248;SDS011;6187;50.778;6.142;2023-12-20T08:13:57;5.07;;;3.00;;
12248;SDS011;6187;50.778;6.142;2023-12-20T08:16:26;8.30;;;3.33;;
12248;SDS011;6187;50.778;6.142;2023-12-20T08:18:55;9.23;;;3.13;;
12248;SDS011;6187;50.778;6.142;2023-12-20T08:21:24;6.60;;;3.30;;
12248;SDS011;6187;50.778;6.142;2023-12-20T08:23:52;9.20;;;3.33;;
12248;SDS011;6187;50.778;6.142;2023-12-20T08:26:21;6.50;;;3.10;;
12248;SDS011;6187;50.778;6.142;2023-12-20T08:28:50;9.87;;;3.70;;
12248;SDS011;6187;50.778;6.142;2023-12-20T08:31:20;6.57;;;3.47;;
12248;SDS011;6187;50.778;6.142;2023-12-20T08:33:49;5.27;;;3.17;;
12248;SDS011;6187;50.778;6.142;2023-12-20T08:36:19;5.80;;;3.10;;
12248;SDS011;6187;50.778;6.142;2023-12-20T08:38:49;8.87;;;3.00;;
12248;SDS011;6187;50.778;6.142;2023-12-20T08:41:18;5.53;;;2.83;;
12248;SDS011;6187;50.778;6.142;2023-12-20T08:43:47;7.03;;;2.83;;
12248;SDS011;6187;50.778;6.142;2023-12-20T08:46:15;7.70;;;2.83;;
12248;SDS011;6187;50.778;6.142;2023-12-20T08:48:45;5.67;;;3.10;;
12248;SDS011;6187;50.778;6.142;2023-12-20T08:51:14;7.87;;;2.77;;
12248;SDS011;6187;50.778;6.142;2023-12-20T08:53:43;7.80;;;3.23;;
12248;SDS011;6187;50.778;6.142;2023-12-20T08:56:12;8.57;;;3.27;;
12248;SDS011;6187;50.778;6.142;2023-12-20T08:58:41;6.90;;;2.57;;
12248;SDS011;6187;50.778;6.142;2023-12-20T09:01:10;5.73;;;2.10;;
12248;SDS011;6187;50.778;6.142;2023-12-20T09:03:39;5.37;;;2.03;;
12248;SDS011;6187;50.778;6.142;2023-12-20T09:06:09;7.17;;;3.17;;
12248;SDS011;6187;50.778;6.142;2023-12-20T09:08:38;4.63;;;2.20;;
12248;SDS011;6187;50.778;6.142;2023-12-20T09:11:06;6.33;;;2.47;;
12248;SDS011;6187;50.778;6.142;2023-12-20T09:13:35;5.60;;;2.37;;
12248;SDS011;6187;50.778;6.142;2023-12-20T09:16:04;4.73;;;2.03;;
12248;SDS011;6187;50.778;6.142;2023-12-20T09:18:33;6.43;;;2.47;;
12248;SDS011;6187;50.778;6.142;2023-12-20T09:21:01;6.87;;;2.73;;
12248;SDS011;6187;50.778;6.142;2023-12-20T09:23:31;5.50;;;2.90;;
12248;SDS011;6187;50.778;6.142;2023-12-20T09:26:00;5.43;;;2.37;;
12248;SDS011;6187;50.778;6.142;2023-12-20T09:28:28;5.53;;;2.20;;
12248;SDS011;6187;50.778;6.142;2023-12-20T09:30:59;3.10;;;2.07;;
12248;SDS011;6187;50.778;6.142;2023-12-20T09:33:28;3.50;;;1.80;;
12248;SDS011;6187;50.778;6.142;2023-12-20T09:35:56;4.77;;;2.13;;
12248;SDS011;6187;50.778;6.142;2023-12-20T09:38:25;7.43;;;2.30;;
12248;SDS011;6187;50.778;6.142;2023-12-20T09:40:56;4.73;;;2.40;;
12248;SDS011;6187;50.778;6.142;2023-12-20T09:43:25;4.13;;;2.53;;
12248;SDS011;6187;50.778;6.142;2023-12-20T09:45:55;5.63;;;2.43;;
12248;SDS011;6187;50.778;6.142;2023-12-20T09:48:26;8.87;;;2.67;;
12248;SDS011;6187;50.778;6.142;2023-12-20T09:50:56;7.07;;;2.40;;
12248;SDS011;6187;50.778;6.142;2023-12-20T09:53:24;7.47;;;2.03;;
12248;SDS011;6187;50.778;6.142;2023-12-20T09:55:58;5.37;;;2.00;;
12248;SDS011;6187;50.778;6.142;2023-12-20T09:58:27;5.80;;;2.13;;
12248;SDS011;6187;50.778;6.142;2023-12-20T10:00:56;6.23;;;2.13;;
12248;SDS011;6187;50.778;6.142;2023-12-20T10:03:25;6.63;;;2.37;;
12248;SDS011;6187;50.778;6.142;2023-12-20T10:05:54;6.60;;;2.50;;
12248;SDS011;6187;50.778;6.142;2023-12-20T10:08:24;4.90;;;2.60;;
12248;SDS011;6187;50.778;6.142;2023-12-20T10:10:52;6.67;;;2.50;;
12248;SDS011;6187;50.778;6.142;2023-12-20T10:13:23;5.77;;;2.07;;
12248;SDS011;6187;50.778;6.142;2023-12-20T10:15:51;4.63;;;2.07;;
12248;SDS011;6187;50.778;6.142;2023-12-20T10:18:20;6.20;;;2.00;;
12248;SDS011;6187;50.778;6.142;2023-12-20T10:21:03;4.20;;;2.10;;
12248;SDS011;6187;50.778;6.142;2023-12-20T10:23:31;5.47;;;2.03;;
12248;SDS011;6187;50.778;6.142;2023-12-20T10:26:01;6.33;;;2.43;;
12248;SDS011;6187;50.778;6.142;2023-12-20T10:31:03;6.33;;;2.27;;
12248;SDS011;6187;50.778;6.142;2023-12-20T10:33:33;5.17;;;2.20;;
12248;SDS011;6187;50.778;6.142;2023-12-20T10:36:02;4.60;;;2.10;;
12248;SDS011;6187;50.778;6.142;2023-12-20T10:38:30;5.73;;;2.03;;
12248;SDS011;6187;50.778;6.142;2023-12-20T10:40:59;4.80;;;2.40;;
12248;SDS011;6187;50.778;6.142;2023-12-20T10:43:29;3.80;;;1.83;;
12248;SDS011;6187;50.778;6.142;2023-12-20T10:45:59;5.00;;;1.77;;
12248;SDS011;6187;50.778;6.142;2023-12-20T10:48:29;6.03;;;2.13;;
12248;SDS011;6187;50.778;6.142;2023-12-20T10:50:59;3.90;;;2.13;;
12248;SDS011;6187;50.778;6.142;2023-12-20T10:53:28;3.60;;;2.00;;
12248;SDS011;6187;50.778;6.142;2023-12-20T10:55:56;5.47;;;2.00;;
12248;SDS011;6187;50.778;6.142;2023-12-20T10:58:28;3.27;;;2.17;;
12248;SDS011;6187;50.778;6.142;2023-12-20T11:00:59;9.07;;;2.10;;
12248;SDS011;6187;50.778;6.142;2023-12-20T11:03:32;6.80;;;1.80;;
12248;SDS011;6187;50.778;6.142;2023-12-20T11:06:02;6.20;;;2.43;;
12248;SDS011;6187;50.778;6.142;2023-12-20T11:08:32;4.93;;;1.90;;
12248;SDS011;6187;50.778;6.142;2023-12-20T11:11:03;3.43;;;1.20;;
12248;SDS011;6187;50.778;6.142;2023-12-20T11:13:34;4.43;;;2.13;;
12248;SDS011;6187;50.778;6.142;2023-12-20T11:16:04;5.40;;;2.00;;
12248;SDS011;6187;50.778;6.142;2023-12-20T11:18:35;5.03;;;2.27;;
12248;SDS011;6187;50.778;6.142;2023-12-20T11:21:04;8.43;;;2.07;;
12248;SDS011;6187;50.778;6.142;2023-12-20T11:23:33;4.93;;;2.00;;
12248;SDS011;6187;50.778;6.142;2023-12-20T11:26:02;5.73;;;2.57;;
12248;SDS011;6187;50.778;6.142;2023-12-20T11:28:31;2.50;;;1.70;;
12248;SDS011;6187;50.778;6.142;2023-12-20T11:31:01;4.30;;;1.87;;
12248;SDS011;6187;50.778;6.142;2023-12-20T11:33:31;5.53;;;2.53;;
12248;SDS011;6187;50.778;6.142;2023-12-20T11:36:01;7.57;;;2.30;;
12248;SDS011;6187;50.778;6.142;2023-12-20T11:38:35;4.03;;;2.40;;
12248;SDS011;6187;50.778;6.142;2023-12-20T11:41:05;5.93;;;1.90;;
12248;SDS011;6187;50.778;6.142;2023-12-20T11:43:37;4.40;;;1.90;;
12248;SDS011;6187;50.778;6.142;2023-12-20T11:46:06;4.80;;;1.93;;
12248;SDS011;6187;50.778;6.142;2023-12-20T11:48:37;3.87;;;2.03;;
12248;SDS011;6187;50.778;6.142;2023-12-20T11:51:10;5.77;;;2.37;;
12248;SDS011;6187;50.778;6.142;2023-12-20T11:53:38;4.20;;;2.10;;
12248;SDS011;6187;50.778;6.142;2023-12-20T11:56:08;6.50;;;2.10;;
12248;SDS011;6187;50.778;6.142;2023-12-20T11:58:38;4.53;;;2.20;;
12248;SDS011;6187;50.778;6.142;2023-12-20T12:01:08;3.17;;;1.77;;
12248;SDS011;6187;50.778;6.142;2023-12-20T12:03:36;6.77;;;2.20;;
12248;SDS011;6187;50.778;6.142;2023-12-20T12:06:05;5.67;;;1.87;;
12248;SDS011;6187;50.778;6.142;2023-12-20T12:08:36;5.53;;;2.30;;
12248;SDS011;6187;50.778;6.142;2023-12-20T12:11:05;6.77;;;1.90;;
12248;SDS011;6187;50.778;6.142;2023-12-20T12:13:33;3.50;;;1.90;;
12248;SDS011;6187;50.778;6.142;2023-12-20T12:16:02;4.13;;;1.80;;
12248;SDS011;6187;50.778;6.142;2023-12-20T12:18:31;5.80;;;2.30;;
12248;SDS011;6187;50.778;6.142;2023-12-20T12:21:00;8.63;;;2.17;;
12248;SDS011;6187;50.778;6.142;2023-12-20T12:23:39;4.03;;;1.70;;
12248;SDS011;6187;50.778;6.142;2023-12-20T12:26:08;7.67;;;2.63;;
12248;SDS011;6187;50.778;6.142;2023-12-20T12:28:37;7.77;;;2.23;;
12248;SDS011;6187;50.778;6.142;2023-12-20T12:31:08;8.10;;;2.30;;
12248;SDS011;6187;50.778;6.142;2023-12-20T12:33:37;2.80;;;1.90;;
12248;SDS011;6187;50.778;6.142;2023-12-20T12:36:07;5.83;;;1.80;;
12248;SDS011;6187;50.778;6.142;2023-12-20T12:38:36;4.90;;;2.10;;
12248;SDS011;6187;50.778;6.142;2023-12-20T12:41:06;4.03;;;2.00;;
12248;SDS011;6187;50.778;6.142;2023-12-20T12:43:34;3.63;;;1.90;;
12248;SDS011;6187;50.778;6.142;2023-12-20T12:46:03;5.27;;;1.47;;
12248;SDS011;6187;50.778;6.142;2023-12-20T12:48:32;3.10;;;1.97;;
12248;SDS011;6187;50.778;6.142;2023-12-20T12:51:01;3.47;;;1.70;;
12248;SDS011;6187;50.778;6.142;2023-12-20T12:53:29;3.37;;;1.80;;
12248;SDS011;6187;50.778;6.142;2023-12-20T12:55:58;4.27;;;2.00;;
12248;SDS011;6187;50.778;6.142;2023-12-20T12:58:28;2.13;;;1.80;;
12248;SDS011;6187;50.778;6.142;2023-12-20T13:00:57;4.60;;;2.20;;
12248;SDS011;6187;50.778;6.142;2023-12-20T13:03:25;11.07;;;1.97;;
12248;SDS011;6187;50.778;6.142;2023-12-20T13:05:54;3.33;;;1.60;;
12248;SDS011;6187;50.778;6.142;2023-12-20T13:08:22;5.73;;;1.93;;
12248;SDS011;6187;50.778;6.142;2023-12-20T13:10:51;5.07;;;1.70;;
12248;SDS011;6187;50.778;6.142;2023-12-20T13:13:20;3.43;;;1.73;;
12248;SDS011;6187;50.778;6.142;2023-12-20T13:15:50;5.70;;;2.10;;
12248;SDS011;6187;50.778;6.142;2023-12-20T13:18:21;2.80;;;1.77;;
12248;SDS011;6187;50.778;6.142;2023-12-20T13:20:50;3.53;;;1.93;;
12248;SDS011;6187;50.778;6.142;2023-12-20T13:23:19;3.83;;;1.97;;
12248;SDS011;6187;50.778;6.142;2023-12-20T13:25:47;2.73;;;2.20;;
12248;SDS011;6187;50.778;6.142;2023-12-20T13:28:16;4.63;;;1.53;;
12248;SDS011;6187;50.778;6.142;2023-12-20T13:30:45;4.57;;;1.63;;
12248;SDS011;6187;50.778;6.142;2023-12-20T13:33:15;2.37;;;1.80;;
12248;SDS011;6187;50.778;6.142;2023-12-20T13:35:44;3.00;;;1.60;;
12248;SDS011;6187;50.778;6.142;2023-12-20T13:38:12;4.60;;;1.67;;
12248;SDS011;6187;50.778;6.142;2023-12-20T13:40:41;5.33;;;2.23;;
12248;SDS011;6187;50.778;6.142;2023-12-20T13:43:10;5.70;;;1.83;;
12248;SDS011;6187;50.778;6.142;2023-12-20T13:45:39;4.53;;;1.97;;
12248;SDS011;6187;50.778;6.142;2023-12-20T13:48:08;5.20;;;1.73;;
12248;SDS011;6187;50.778;6.142;2023-12-20T13:50:38;4.70;;;2.10;;
12248;SDS011;6187;50.778;6.142;2023-12-20T13:53:06;4.93;;;1.87;;
12248;SDS011;6187;50.778;6.142;2023-12-20T13:55:35;4.40;;;2.00;;
12248;SDS011;6187;50.778;6.142;2023-12-20T13:58:04;5.90;;;2.30;;
12248;SDS011;6187;50.778;6.142;2023-12-20T14:00:32;4.27;;;2.20;;
12248;SDS011;6187;50.778;6.142;2023-12-20T14:03:03;5.47;;;2.13;;
12248;SDS011;6187;50.778;6.142;2023-12-20T14:05:32;7.20;;;2.43;;
12248;SDS011;6187;50.778;6.142;2023-12-20T14:08:02;5.27;;;2.23;;
12248;SDS011;6187;50.778;6.142;2023-12-20T14:10:31;4.70;;;2.07;;
12248;SDS011;6187;50.778;6.142;2023-12-20T14:12:59;5.87;;;1.90;;
12248;SDS011;6187;50.778;6.142;2023-12-20T14:15:28;5.83;;;2.03;;
12248;SDS011;6187;50.778;6.142;2023-12-20T14:17:56;4.90;;;2.47;;
12248;SDS011;6187;50.778;6.142;2023-12-20T14:20:25;4.23;;;2.13;;
12248;SDS011;6187;50.778;6.142;2023-12-20T14:22:53;4.30;;;2.07;;
12248;SDS011;6187;50.778;6.142;2023-12-20T14:25:23;5.10;;;2.07;;
12248;SDS011;6187;50.778;6.142;2023-12-20T14:27:55;3.97;;;2.10;;
12248;SDS011;6187;50.778;6.142;2023-12-20T14:30:24;4.70;;;2.30;;
12248;SDS011;6187;50.778;6.142;2023-12-20T14:32:53;7.20;;;2.90;;
12248;SDS011;6187;50.778;6.142;2023-12-20T14:35:21;3.80;;;2.10;;
12248;SDS011;6187;50.778;6.142;2023-12-20T14:37:50;7.37;;;2.23;;
12248;SDS011;6187;50.778;6.142;2023-12-20T14:40:18;6.03;;;2.47;;
12248;SDS011;6187;50.778;6.142;2023-12-20T14:42:48;2.53;;;2.07;;
12248;SDS011;6187;50.778;6.142;2023-12-20T14:45:18;3.57;;;2.10;;
12248;SDS011;6187;50.778;6.142;2023-12-20T14:47:46;7.83;;;2.27;;
12248;SDS011;6187;50.778;6.142;2023-12-20T14:50:16;4.77;;;2.20;;
12248;SDS011;6187;50.778;6.142;2023-12-20T14:52:46;5.70;;;2.53;;
12248;SDS011;6187;50.778;6.142;2023-12-20T14:55:14;4.30;;;2.57;;
12248;SDS011;6187;50.778;6.142;2023-12-20T14:57:43;8.53;;;2.63;;
12248;SDS011;6187;50.778;6.142;2023-12-20T15:00:14;4.07;;;2.13;;
12248;SDS011;6187;50.778;6.142;2023-12-20T15:02:43;7.23;;;2.70;;
12248;SDS011;6187;50.778;6.142;2023-12-20T15:05:12;4.97;;;2.90;;
12248;SDS011;6187;50.778;6.142;2023-12-20T15:07:42;4.90;;;2.33;;
12248;SDS011;6187;50.778;6.142;2023-12-20T15:10:11;5.63;;;2.77;;
12248;SDS011;6187;50.778;6.142;2023-12-20T15:12:40;4.50;;;2.13;;
12248;SDS011;6187;50.778;6.142;2023-12-20T15:15:09;4.10;;;2.43;;